Time;durP1;ratioP1;P1;durP2;ratioP2;P2;SDS_P1;SDS_P2;PMS_P1;PMS_P2;Temp;Humidity;BMP_temperature;BMP_pressure;BME280_temperature;BME280_humidity;BME280_pressure;Samples;Min_cycle;Max_cycle;Signal;HPM_P1;HPM_P2
2023/10/06 00:00:40;;;;;;;18.20;6.53;;;21.70;99.90;;;;;;5093398;28;20050;-71
2023/10/06 00:03:10;;;;;;;13.77;5.47;;;21.70;99.90;;;;;;5095795;28;20111;-69
2023/10/06 00:05:37;;;;;;;19.98;6.45;;;21.70;99.90;;;;;;5095590;28;20059;-70
2023/10/06 00:08:05;;;;;;;17.92;5.47;;;21.70;99.90;;;;;;5095272;28;20051;-70
2023/10/06 00:10:32;;;;;;;25.48;5.63;;;21.60;99.90;;;;;;5095461;28;20486;-70
2023/10/06 00:13:04;;;;;;;16.15;5.60;;;21.60;99.90;;;;;;5095571;28;20021;-71
2023/10/06 00:15:40;;;;;;;11.48;5.05;;;21.60;99.90;;;;;;5095925;28;20016;-70
2023/10/06 00:18:08;;;;;;;14.35;5.55;;;21.60;99.90;;;;;;5095759;28;20111;-70
2023/10/06 00:20:49;;;;;;;19.90;7.82;;;21.60;99.90;;;;;;5095537;28;20096;-71
2023/10/06 00:23:22;;;;;;;15.32;5.25;;;21.60;99.90;;;;;;5095982;28;20089;-71
2023/10/06 00:25:54;;;;;;;21.92;5.82;;;21.60;99.90;;;;;;5095985;28;20110;-70
2023/10/06 00:28:28;;;;;;;14.32;5.03;;;21.60;99.90;;;;;;5095269;28;20035;-69
2023/10/06 00:30:56;;;;;;;11.75;4.40;;;21.60;99.90;;;;;;5095451;28;20020;-70
2023/10/06 00:33:32;;;;;;;14.80;5.15;;;21.50;99.90;;;;;;5095044;28;20097;-70
2023/10/06 00:36:07;;;;;;;15.90;4.90;;;21.50;99.90;;;;;;5095437;28;20080;-70
2023/10/06 00:38:36;;;;;;;12.20;5.43;;;21.50;99.90;;;;;;5094932;28;20491;-70
2023/10/06 00:41:06;;;;;;;19.73;5.10;;;21.50;99.90;;;;;;5095005;28;20024;-70
2023/10/06 00:43:36;;;;;;;12.50;4.60;;;21.50;99.90;;;;;;5095605;28;20054;-70
2023/10/06 00:46:07;;;;;;;10.88;4.57;;;21.50;99.90;;;;;;5095305;28;20027;-70
2023/10/06 00:48:44;;;;;;;12.38;4.75;;;21.50;99.90;;;;;;5094640;28;20562;-70
2023/10/06 00:51:19;;;;;;;14.38;5.07;;;21.50;99.90;;;;;;5094758;28;20051;-70
2023/10/06 00:53:46;;;;;;;10.50;4.60;;;21.40;99.90;;;;;;5095189;28;20024;-70
2023/10/06 00:56:16;;;;;;;12.02;4.97;;;21.50;99.90;;;;;;5094700;28;20063;-70
2023/10/06 00:58:42;;;;;;;13.75;4.80;;;21.50;99.90;;;;;;5094692;28;20024;-71
2023/10/06 01:01:13;;;;;;;13.15;5.00;;;21.50;99.90;;;;;;5095018;28;20021;-70
2023/10/06 01:03:42;;;;;;;20.40;5.15;;;21.50;99.90;;;;;;5094409;28;20036;-70
2023/10/06 01:06:14;;;;;;;15.52;5.13;;;21.50;99.90;;;;;;5094440;28;20046;-70
2023/10/06 01:08:53;;;;;;;17.70;5.22;;;21.50;99.90;;;;;;5094321;28;20039;-70
2023/10/06 01:11:26;;;;;;;10.57;5.47;;;21.50;99.90;;;;;;5094250;28;20023;-70
2023/10/06 01:13:59;;;;;;;11.32;4.28;;;21.50;99.90;;;;;;5094279;28;20121;-71
2023/10/06 01:16:31;;;;;;;15.65;5.32;;;21.40;99.90;;;;;;5094175;28;20302;-70
2023/10/06 01:19:14;;;;;;;11.80;4.88;;;21.40;99.90;;;;;;5094060;28;20515;-71
2023/10/06 01:21:48;;;;;;;11.20;5.15;;;21.40;99.90;;;;;;5094715;28;20027;-70
2023/10/06 01:24:23;;;;;;;13.63;5.32;;;21.30;99.90;;;;;;5094697;28;20028;-70
2023/10/06 01:26:51;;;;;;;15.52;5.97;;;21.30;99.90;;;;;;5094514;28;20500;-69
2023/10/06 01:29:17;;;;;;;14.68;5.93;;;21.20;99.90;;;;;;5075848;28;20399;-71
2023/10/06 01:31:49;;;;;;;14.90;6.22;;;21.20;99.90;;;;;;5094077;28;20024;-71
2023/10/06 01:34:16;;;;;;;11.45;5.72;;;21.10;99.90;;;;;;5093985;28;20024;-71
2023/10/06 01:36:42;;;;;;;13.63;6.05;;;21.00;99.90;;;;;;5093919;28;20082;-72
2023/10/06 01:39:17;;;;;;;15.73;5.88;;;21.00;99.90;;;;;;5094493;28;20032;-71
2023/10/06 01:41:47;;;;;;;17.88;5.97;;;21.00;99.90;;;;;;5094447;28;20453;-70
2023/10/06 01:44:15;;;;;;;16.70;6.57;;;21.00;99.90;;;;;;5094197;28;20028;-71
2023/10/06 01:46:43;;;;;;;14.68;6.28;;;21.00;99.90;;;;;;5093909;28;20020;-71
2023/10/06 01:49:11;;;;;;;11.07;5.82;;;21.10;99.90;;;;;;5093620;28;20455;-70
2023/10/06 01:51:40;;;;;;;12.40;5.78;;;21.10;99.90;;;;;;5075500;28;20360;-70
2023/10/06 01:54:12;;;;;;;12.63;5.75;;;21.10;99.90;;;;;;5093746;28;20024;-70
2023/10/06 01:56:44;;;;;;;19.77;6.38;;;21.10;99.90;;;;;;5094143;28;20127;-70
2023/10/06 01:59:15;;;;;;;17.08;5.93;;;21.10;99.90;;;;;;5093586;28;20035;-71
2023/10/06 02:01:42;;;;;;;12.63;5.90;;;21.10;99.90;;;;;;5094083;28;20099;-70
2023/10/06 02:04:13;;;;;;;;;;;21.10;99.90;;;;;;5093924;28;20020;-70
2023/10/06 02:06:42;;;;;;;12.85;6.22;;;21.10;99.90;;;;;;5093786;28;19928;-70
2023/10/06 02:09:20;;;;;;;16.08;5.93;;;21.10;99.90;;;;;;5093591;28;20032;-70
2023/10/06 02:11:50;;;;;;;11.80;5.65;;;21.10;99.90;;;;;;5093535;28;20378;-70
2023/10/06 02:14:18;;;;;;;12.07;5.45;;;21.00;99.90;;;;;;5093579;28;20030;-70
2023/10/06 02:16:45;;;;;;;16.90;6.00;;;21.10;99.90;;;;;;5093571;28;20028;-71
2023/10/06 02:19:18;;;;;;;13.18;6.05;;;21.10;99.90;;;;;;5092917;28;20075;-70
2023/10/06 02:21:54;;;;;;;10.18;5.53;;;21.00;99.90;;;;;;5093729;28;20025;-70
2023/10/06 02:24:21;;;;;;;14.07;6.05;;;21.10;99.90;;;;;;5074826;28;20035;-70
2023/10/06 02:26:58;;;;;;;16.10;5.93;;;21.00;99.90;;;;;;5093284;28;20016;-67
2023/10/06 02:29:24;;;;;;;13.65;5.82;;;21.00;99.90;;;;;;5093012;28;20035;-69
2023/10/06 02:31:51;;;;;;;10.35;5.40;;;21.00;99.90;;;;;;5092836;28;20482;-69
2023/10/06 02:34:29;;;;;;;10.85;6.30;;;21.00;99.90;;;;;;5092465;28;20028;-71
2023/10/06 02:37:01;;;;;;;19.08;5.80;;;21.00;99.90;;;;;;5092433;28;20137;-69
2023/10/06 02:39:34;;;;;;;15.75;5.68;;;21.00;99.90;;;;;;5092996;28;20035;-70
2023/10/06 02:42:07;;;;;;;13.75;6.22;;;21.00;99.90;;;;;;5092977;28;20425;-70
2023/10/06 02:44:38;;;;;;;12.80;6.10;;;21.00;99.90;;;;;;5092657;28;20103;-70
2023/10/06 02:47:09;;;;;;;12.82;6.05;;;21.00;99.90;;;;;;5092197;28;20055;-70
2023/10/06 02:49:37;;;;;;;12.60;5.60;;;21.00;99.90;;;;;;5092054;28;20071;-71
2023/10/06 02:52:46;;;;;;;14.23;5.40;;;20.90;99.90;;;;;;5092378;28;20024;-70
2023/10/06 02:55:10;;;;;;;10.18;5.60;;;20.90;99.90;;;;;;5081514;28;20028;-70
2023/10/06 02:57:36;;;;;;;13.23;5.80;;;20.80;99.90;;;;;;5092895;28;20024;-70
2023/10/06 03:02:55;;;;;;;12.35;5.95;;;20.60;99.90;;;;;;5092389;28;20039;-69
2023/10/06 03:05:38;;;;;;;12.55;5.72;;;20.70;99.90;;;;;;5092706;28;20024;-69
2023/10/06 03:08:11;;;;;;;14.13;5.72;;;20.60;99.90;;;;;;5092589;28;20077;-70
2023/10/06 03:10:44;;;;;;;9.25;5.55;;;20.60;99.90;;;;;;5092378;28;20028;-69
2023/10/06 03:13:14;;;;;;;15.30;5.97;;;20.50;99.90;;;;;;5093120;28;20092;-70
2023/10/06 03:15:47;;;;;;;11.88;5.70;;;20.50;99.90;;;;;;5092915;28;20117;-69
2023/10/06 03:18:15;;;;;;;10.88;5.50;;;20.50;99.90;;;;;;5092735;28;20024;-69
2023/10/06 03:20:48;;;;;;;11.60;5.85;;;20.50;99.90;;;;;;5093147;28;20020;-69
2023/10/06 03:23:26;;;;;;;10.30;5.50;;;20.50;99.90;;;;;;5093146;28;20419;-69
2023/10/06 03:26:02;;;;;;;10.98;5.95;;;20.50;99.90;;;;;;5093843;28;20031;-70
2023/10/06 03:28:32;;;;;;;10.95;5.53;;;20.60;99.90;;;;;;5093412;28;20111;-71
2023/10/06 03:31:09;;;;;;;13.73;5.47;;;20.50;99.90;;;;;;5093537;28;20052;-69
2023/10/06 03:33:35;;;;;;;10.85;5.70;;;20.60;99.90;;;;;;5093070;28;20105;-70
2023/10/06 03:36:01;;;;;;;13.57;5.72;;;20.60;99.90;;;;;;5093163;28;20048;-70
2023/10/06 03:38:27;;;;;;;11.35;5.85;;;20.50;99.90;;;;;;5073994;28;20048;-70
2023/10/06 03:46:11;;;;;;;9.52;5.55;;;20.50;99.90;;;;;;5092617;28;20105;-70
2023/10/06 03:48:38;;;;;;;13.38;6.03;;;20.50;99.90;;;;;;5092284;28;20093;-71
2023/10/06 03:51:05;;;;;;;10.90;5.50;;;20.50;99.90;;;;;;5074337;28;20035;-70
2023/10/06 03:53:32;;;;;;;11.85;5.88;;;20.50;99.90;;;;;;5092845;28;20114;-69
2023/10/06 03:55:59;;;;;;;13.88;5.15;;;20.60;99.90;;;;;;5074113;28;20032;-70
2023/10/06 03:58:28;;;;;;;;;;;20.60;99.90;;;;;;5074532;28;20032;-70
2023/10/06 04:00:54;;;;;;;10.93;5.30;;;20.50;99.90;;;;;;5092619;28;20318;-72
2023/10/06 04:03:21;;;;;;;13.32;5.65;;;20.60;99.90;;;;;;5092497;28;20574;-69
2023/10/06 04:05:51;;;;;;;;;;;20.60;99.90;;;;;;5092807;28;20093;-69
2023/10/06 04:08:23;;;;;;;10.30;5.72;;;20.70;99.90;;;;;;5092319;28;19973;-70
2023/10/06 04:10:57;;;;;;;13.65;5.50;;;20.80;99.90;;;;;;5074063;28;20047;-70
2023/10/06 04:13:24;;;;;;;10.13;5.70;;;20.80;99.90;;;;;;5092948;28;20034;-71
2023/10/06 04:15:52;;;;;;;10.63;5.75;;;20.80;99.90;;;;;;5092758;28;20093;-70
2023/10/06 04:18:24;;;;;;;9.48;5.65;;;20.80;99.90;;;;;;5092624;28;20047;-70
2023/10/06 04:20:55;;;;;;;11.10;5.85;;;20.80;99.90;;;;;;5093004;28;20067;-70
2023/10/06 04:23:23;;;;;;;10.85;5.40;;;20.70;99.90;;;;;;5074539;28;20115;-69
2023/10/06 04:25:54;;;;;;;10.88;5.70;;;20.70;99.90;;;;;;5093020;28;20024;-70
2023/10/06 04:28:26;;;;;;;14.38;5.95;;;20.70;99.90;;;;;;5074545;28;20496;-70
2023/10/06 04:30:54;;;;;;;10.18;5.50;;;20.60;99.90;;;;;;5093308;28;20028;-70
2023/10/06 04:33:21;;;;;;;17.00;6.03;;;20.50;99.90;;;;;;5092909;28;20020;-71
2023/10/06 04:38:37;;;;;;;12.57;5.72;;;20.50;99.90;;;;;;5092404;28;20557;-69
2023/10/06 04:41:07;;;;;;;12.10;5.60;;;20.50;99.90;;;;;;5092649;28;20024;-69
2023/10/06 04:43:35;;;;;;;13.27;5.75;;;20.50;99.90;;;;;;5093174;28;20023;-71
2023/10/06 04:46:02;;;;;;;10.43;5.80;;;20.50;99.90;;;;;;5092794;28;20417;-71
2023/10/06 04:48:29;;;;;;;16.48;5.55;;;20.60;99.90;;;;;;5077147;28;20044;-69
2023/10/06 04:50:55;;;;;;;13.63;5.60;;;20.60;99.90;;;;;;5096458;28;20380;-71
2023/10/06 04:53:22;;;;;;;14.73;5.85;;;20.60;99.90;;;;;;5096479;28;20028;-70
2023/10/06 04:55:48;;;;;;;11.90;5.70;;;20.60;99.90;;;;;;5096646;28;20482;-69
2023/10/06 04:58:15;;;;;;;15.43;5.97;;;20.70;99.90;;;;;;5095990;28;20028;-71
2023/10/06 05:00:49;;;;;;;12.68;5.80;;;20.70;99.90;;;;;;5095894;28;20551;-71
2023/10/06 05:03:16;;;;;;;15.65;5.80;;;20.70;99.90;;;;;;5096074;28;20099;-70
2023/10/06 05:05:42;;;;;;;9.40;5.50;;;20.60;99.90;;;;;;5095646;28;20020;-71
2023/10/06 05:08:14;;;;;;;13.52;5.97;;;20.50;99.90;;;;;;5095826;28;20086;-70
2023/10/06 05:10:41;;;;;;;14.13;5.93;;;20.40;99.90;;;;;;5095342;28;20028;-70
2023/10/06 05:13:08;;;;;;;13.88;5.72;;;20.40;99.90;;;;;;5095748;28;20048;-70
2023/10/06 05:15:34;;;;;;;16.50;6.25;;;20.20;99.90;;;;;;5076878;28;20066;-71
2023/10/06 05:18:04;;;;;;;12.95;6.00;;;20.00;99.90;;;;;;5076806;28;20032;-70
2023/10/06 05:20:35;;;;;;;15.00;6.07;;;20.00;99.90;;;;;;5095260;28;20016;-71
2023/10/06 05:23:07;;;;;;;13.48;6.65;;;20.00;99.90;;;;;;5095177;28;20031;-70
2023/10/06 05:25:39;;;;;;;11.98;5.80;;;20.00;99.90;;;;;;5095656;28;20044;-71
2023/10/06 05:28:10;;;;;;;13.02;6.13;;;20.00;99.90;;;;;;5094537;28;20032;-70
2023/10/06 05:30:37;;;;;;;12.07;5.90;;;19.90;99.90;;;;;;5094789;28;20111;-70
2023/10/06 05:33:04;;;;;;;15.23;6.38;;;20.00;99.90;;;;;;5094149;28;20030;-71
2023/10/06 05:35:38;;;;;;;16.05;6.10;;;20.00;99.90;;;;;;5094477;28;20032;-71
2023/10/06 05:38:13;;;;;;;11.75;6.10;;;20.10;99.90;;;;;;5094144;28;20084;-72
2023/10/06 05:40:46;;;;;;;13.48;5.95;;;20.60;99.90;;;;;;5094350;28;20065;-71
2023/10/06 05:43:13;;;;;;;11.38;6.03;;;21.30;99.90;;;;;;5094486;28;20028;-70
2023/10/06 05:45:39;;;;;;;11.57;5.63;;;21.90;99.90;;;;;;5075451;28;20035;-70
2023/10/06 05:48:10;;;;;;;11.27;5.78;;;22.60;99.90;;;;;;5093298;28;20043;-71
2023/10/06 05:50:36;;;;;;;12.45;5.80;;;23.40;99.90;;;;;;5075428;28;20072;-70
2023/10/06 05:53:07;;;;;;;;;;;23.70;99.90;;;;;;5093745;28;20028;-71
2023/10/06 05:55:35;;;;;;;11.30;5.70;;;24.40;99.90;;;;;;5093140;28;19904;-70
2023/10/06 05:58:14;;;;;;;15.45;6.32;;;24.70;99.90;;;;;;5092601;28;20043;-71
2023/10/06 06:00:51;;;;;;;13.40;6.35;;;25.00;99.90;;;;;;5092643;28;20467;-70
2023/10/06 06:03:21;;;;;;;9.85;5.63;;;25.10;99.90;;;;;;5093214;28;20436;-71
2023/10/06 06:05:49;;;;;;;14.43;6.25;;;25.50;99.90;;;;;;5074904;28;20391;-72
2023/10/06 06:08:15;;;;;;;12.30;5.90;;;25.50;99.90;;;;;;5094254;28;20209;-71
2023/10/06 06:10:41;;;;;;;17.40;6.25;;;25.80;99.90;;;;;;5093472;28;20040;-71
2023/10/06 06:13:07;;;;;;;21.52;6.90;;;26.30;99.90;;;;;;5092690;28;20479;-71
2023/10/06 06:15:35;;;;;;;;;;;26.60;99.90;;;;;;5093262;28;20074;-71
2023/10/06 06:18:01;;;;;;;15.25;5.70;;;26.80;99.90;;;;;;5093190;28;19920;-72
2023/10/06 06:20:27;;;;;;;;;;;26.80;99.90;;;;;;5094066;28;20107;-70
2023/10/06 06:22:58;;;;;;;17.15;5.78;;;27.30;99.90;;;;;;5092540;28;19927;-72
2023/10/06 06:25:26;;;;;;;10.93;5.70;;;28.00;99.90;;;;;;5093110;28;20047;-70
2023/10/06 06:27:54;;;;;;;13.50;5.65;;;28.40;99.90;;;;;;5073825;28;20504;-70
2023/10/06 06:30:23;;;;;;;14.32;5.38;;;28.70;99.90;;;;;;5092672;28;20136;-70
2023/10/06 06:32:50;;;;;;;11.25;5.15;;;29.80;99.90;;;;;;5092107;28;20031;-72
2023/10/06 06:35:22;;;;;;;11.50;5.10;;;30.50;99.90;;;;;;5092523;28;20043;-72
2023/10/06 06:37:51;;;;;;;12.68;4.95;;;31.70;99.90;;;;;;5070338;28;20105;-70
2023/10/06 06:40:19;;;;;;;13.13;4.95;;;32.20;99.90;;;;;;5072454;28;20036;-70
2023/10/06 06:42:47;;;;;;;9.55;4.88;;;32.30;99.90;;;;;;5070573;28;20380;-70
2023/10/06 06:45:13;;;;;;;14.70;4.93;;;32.70;99.90;;;;;;5070577;28;20025;-71
2023/10/06 06:47:44;;;;;;;16.40;4.60;;;32.80;99.90;;;;;;5072296;28;20055;-70
2023/10/06 06:50:15;;;;;;;28.88;4.68;;;33.40;99.90;;;;;;5072454;28;20388;-72
2023/10/06 06:53:01;;;;;;;15.63;5.20;;;33.50;99.90;;;;;;5072777;28;20024;-73
2023/10/06 06:55:30;;;;;;;11.88;4.50;;;34.40;99.90;;;;;;5072305;28;20029;-71
2023/10/06 06:58:00;;;;;;;12.15;4.30;;;34.30;99.90;;;;;;5072603;28;20020;-72
2023/10/06 07:00:26;;;;;;;15.98;4.43;;;34.30;99.90;;;;;;5072661;28;20026;-72
2023/10/06 07:02:53;;;;;;;14.52;4.50;;;34.20;99.90;;;;;;5072117;28;20029;-70
2023/10/06 07:05:21;;;;;;;14.75;4.72;;;34.40;99.90;;;;;;5071836;28;20113;-70
2023/10/06 07:07:50;;;;;;;10.02;4.20;;;34.10;99.90;;;;;;5072203;28;20436;-72
2023/10/06 07:10:22;;;;;;;14.40;4.47;;;33.60;99.90;;;;;;5069454;28;20146;-72
2023/10/06 07:12:50;;;;;;;12.75;4.20;;;33.80;99.90;;;;;;5071876;28;20035;-71
2023/10/06 07:15:18;;;;;;;11.50;4.68;;;33.80;99.90;;;;;;5070240;28;20024;-72
2023/10/06 07:17:53;;;;;;;12.10;4.13;;;34.10;99.90;;;;;;5071734;28;20028;-71
2023/10/06 07:20:27;;;;;;;12.60;4.70;;;33.90;99.90;;;;;;5071560;28;20104;-70
2023/10/06 07:23:00;;;;;;;14.63;4.57;;;33.40;99.90;;;;;;5070749;28;20095;-72
2023/10/06 07:25:27;;;;;;;15.27;4.90;;;32.80;99.90;;;;;;5071875;28;20036;-71
2023/10/06 07:27:57;;;;;;;11.60;4.63;;;32.50;99.90;;;;;;5071620;28;20036;-70
2023/10/06 07:30:29;;;;;;;18.08;6.28;;;31.80;99.90;;;;;;5072299;28;20058;-72
2023/10/06 07:32:55;;;;;;;18.80;5.35;;;31.40;99.90;;;;;;5071551;28;20151;-70
2023/10/06 07:35:45;;;;;;;12.57;4.90;;;30.90;99.90;;;;;;5071441;28;20393;-70
2023/10/06 07:38:11;;;;;;;13.20;5.35;;;30.50;99.90;;;;;;5070066;28;20118;-71
2023/10/06 07:40:38;;;;;;;14.43;5.20;;;30.00;99.90;;;;;;5071440;28;20080;-70
2023/10/06 07:43:07;;;;;;;16.00;5.35;;;30.00;99.90;;;;;;5071440;28;20045;-73
2023/10/06 07:45:34;;;;;;;14.10;4.90;;;29.70;99.90;;;;;;5070483;28;20016;-71
2023/10/06 07:48:00;;;;;;;11.43;5.38;;;29.60;99.90;;;;;;5070619;28;20042;-71
2023/10/06 07:50:28;;;;;;;10.93;4.88;;;28.80;99.90;;;;;;5069912;28;20044;-71
2023/10/06 07:52:55;;;;;;;12.18;5.25;;;28.90;99.90;;;;;;5069428;28;20028;-71
2023/10/06 07:55:23;;;;;;;11.13;4.40;;;28.20;99.90;;;;;;5070753;28;20066;-72
2023/10/06 07:57:50;;;;;;;10.48;4.63;;;27.70;99.90;;;;;;5071085;28;20029;-71
2023/10/06 08:00:28;;;;;;;11.15;4.90;;;27.80;99.90;;;;;;5071039;28;20311;-72
2023/10/06 08:02:56;;;;;;;11.70;4.72;;;27.90;99.90;;;;;;5071099;28;20101;-73
2023/10/06 08:05:23;;;;;;;13.50;5.20;;;28.20;99.90;;;;;;5071346;28;20021;-72
2023/10/06 08:07:49;;;;;;;14.00;5.22;;;28.50;99.90;;;;;;5070740;28;20166;-71
2023/10/06 08:10:18;;;;;;;10.18;4.40;;;29.00;99.90;;;;;;5070957;28;20036;-71
2023/10/06 08:12:50;;;;;;;21.45;5.13;;;28.80;99.90;;;;;;5071130;28;20047;-72
2023/10/06 08:15:21;;;;;;;10.35;4.65;;;28.70;99.90;;;;;;5071547;28;20025;-72
2023/10/06 08:17:53;;;;;;;10.00;4.70;;;28.70;99.90;;;;;;5071763;28;20051;-70
2023/10/06 08:20:24;;;;;;;10.65;5.10;;;28.80;99.90;;;;;;5071111;28;20024;-71
2023/10/06 08:22:51;;;;;;;15.35;5.57;;;28.90;99.90;;;;;;5074982;28;20044;-71
2023/10/06 08:25:24;;;;;;;12.25;5.47;;;29.10;99.90;;;;;;5075345;28;20059;-72
2023/10/06 08:27:51;;;;;;;10.50;4.47;;;29.20;99.90;;;;;;5073468;28;20032;-72
2023/10/06 08:30:19;;;;;;;10.98;5.40;;;29.30;99.90;;;;;;5075014;28;20036;-71
2023/10/06 08:32:46;;;;;;;12.10;4.80;;;28.90;99.90;;;;;;5075071;28;20032;-72
2023/10/06 08:35:15;;;;;;;15.35;4.97;;;28.70;99.90;;;;;;5074636;28;20020;-71
2023/10/06 08:37:46;;;;;;;18.48;7.20;;;28.60;99.90;;;;;;5083809;28;20040;-73
2023/10/06 08:40:19;;;;;;;81.65;8.40;;;28.70;99.90;;;;;;5076657;28;20365;-72
2023/10/06 08:42:53;;;;;;;11.70;5.32;;;28.70;99.90;;;;;;5094930;28;20089;-71
2023/10/06 08:45:28;;;;;;;12.38;5.50;;;28.80;99.90;;;;;;5095142;28;20036;-70
2023/10/06 08:47:59;;;;;;;12.93;5.43;;;28.80;99.90;;;;;;5076344;28;20089;-71
2023/10/06 08:50:31;;;;;;;16.80;5.03;;;28.60;99.90;;;;;;5094522;28;20036;-71
2023/10/06 08:52:58;;;;;;;12.57;5.90;;;28.90;99.90;;;;;;5094306;28;20027;-71
2023/10/06 08:55:27;;;;;;;13.60;6.00;;;28.80;99.90;;;;;;5075569;28;20032;-71
2023/10/06 08:57:53;;;;;;;21.27;6.72;;;28.70;99.90;;;;;;5094001;28;20391;-71
2023/10/06 09:00:22;;;;;;;;;;;28.40;99.90;;;;;;5076240;28;20028;-70
2023/10/06 09:02:52;;;;;;;17.98;6.70;;;28.40;99.90;;;;;;5094082;28;19911;-71
2023/10/06 09:05:24;;;;;;;17.35;6.07;;;28.20;99.90;;;;;;5093630;28;20050;-71
2023/10/06 09:08:10;;;;;;;13.73;6.05;;;28.40;99.90;;;;;;5093601;28;20093;-71
2023/10/06 09:10:48;;;;;;;27.08;6.63;;;28.00;99.90;;;;;;5094098;28;20031;-71
2023/10/06 09:13:16;;;;;;;17.92;5.55;;;27.90;99.90;;;;;;5074996;28;20510;-70
2023/10/06 09:15:54;;;;;;;18.30;6.00;;;27.90;99.90;;;;;;5093877;28;20031;-71
2023/10/06 09:18:29;;;;;;;14.10;5.57;;;27.70;99.90;;;;;;5093307;28;20097;-70
2023/10/06 09:20:59;;;;;;;12.55;5.28;;;27.50;99.90;;;;;;5093982;28;20021;-71
2023/10/06 09:23:43;;;;;;;16.67;5.88;;;27.60;99.90;;;;;;5075446;28;20456;-71
2023/10/06 09:26:11;;;;;;;16.90;5.55;;;27.50;99.90;;;;;;5094000;28;20028;-70
2023/10/06 09:28:59;;;;;;;13.90;5.05;;;27.60;99.90;;;;;;5093024;28;20036;-71
2023/10/06 09:31:44;;;;;;;12.40;5.32;;;27.90;99.90;;;;;;5093696;28;20020;-71
2023/10/06 09:34:11;;;;;;;16.20;5.32;;;27.80;99.90;;;;;;5092402;28;20172;-71
2023/10/06 09:36:42;;;;;;;17.70;5.65;;;28.00;99.90;;;;;;5092964;28;20020;-71
2023/10/06 09:39:14;;;;;;;15.82;5.13;;;27.70;99.90;;;;;;5093164;28;20181;-72
2023/10/06 09:41:40;;;;;;;10.18;5.38;;;27.50;99.90;;;;;;5093475;28;20019;-71
2023/10/06 09:44:09;;;;;;;;;;;27.30;99.90;;;;;;5093412;28;20028;-70
2023/10/06 09:46:35;;;;;;;18.40;6.47;;;27.50;99.90;;;;;;5092371;28;19912;-70
2023/10/06 09:49:05;;;;;;;13.65;6.30;;;27.60;99.90;;;;;;5092561;28;20086;-70
2023/10/06 09:51:36;;;;;;;18.73;6.00;;;27.70;99.90;;;;;;5092833;28;20096;-71
2023/10/06 09:54:10;;;;;;;17.33;5.43;;;27.60;99.90;;;;;;5092643;28;20028;-71
2023/10/06 09:56:41;;;;;;;16.75;6.72;;;27.50;99.90;;;;;;5092087;28;20077;-72
2023/10/06 09:59:12;;;;;;;13.85;6.32;;;27.50;99.90;;;;;;5073908;28;20112;-71
2023/10/06 10:01:42;;;;;;;17.98;7.05;;;27.70;99.90;;;;;;5092520;28;20088;-70
2023/10/06 10:04:11;;;;;;;15.35;7.28;;;27.50;99.90;;;;;;5092273;28;20036;-71
2023/10/06 10:06:44;;;;;;;14.40;6.13;;;27.60;99.90;;;;;;5073837;28;20478;-71
2023/10/06 10:09:16;;;;;;;14.68;5.45;;;27.50;99.90;;;;;;5092526;28;20021;-70
2023/10/06 10:12:02;;;;;;;15.23;6.05;;;27.40;99.90;;;;;;5091824;28;20039;-71
2023/10/06 10:14:53;;;;;;;13.80;6.28;;;27.20;99.90;;;;;;5092660;28;20032;-73
2023/10/06 10:18:04;;;;;;;15.00;6.65;;;26.90;99.90;;;;;;5073717;28;20111;-70
2023/10/06 10:20:32;;;;;;;16.83;6.30;;;26.70;99.90;;;;;;5091226;28;20071;-70
2023/10/06 10:23:01;;;;;;;19.75;6.10;;;27.00;99.90;;;;;;5092395;28;20114;-71
2023/10/06 10:25:29;;;;;;;20.15;6.82;;;27.20;99.90;;;;;;5092914;28;20036;-70
2023/10/06 10:28:11;;;;;;;13.75;6.22;;;27.40;99.90;;;;;;5092206;28;20020;-71
2023/10/06 10:30:59;;;;;;;16.00;6.43;;;27.30;99.90;;;;;;5092507;28;20020;-71
2023/10/06 10:33:33;;;;;;;13.93;6.28;;;27.30;99.90;;;;;;5092635;28;20017;-71
2023/10/06 10:36:15;;;;;;;14.80;5.53;;;27.40;99.90;;;;;;5073712;28;20035;-71
2023/10/06 10:38:42;;;;;;;13.60;6.20;;;27.60;99.90;;;;;;5092978;28;20082;-71
2023/10/06 10:41:10;;;;;;;16.45;5.75;;;27.40;99.90;;;;;;5092607;28;20491;-72
2023/10/06 10:43:48;;;;;;;14.38;5.45;;;27.60;99.90;;;;;;5092308;28;20032;-71
2023/10/06 10:46:33;;;;;;;10.48;5.35;;;27.60;99.90;;;;;;5073138;28;20028;-72
2023/10/06 10:49:02;;;;;;;15.23;5.28;;;27.50;99.90;;;;;;5091868;28;20043;-72
2023/10/06 10:51:33;;;;;;;16.92;5.95;;;27.40;99.90;;;;;;5073791;28;20134;-70
2023/10/06 10:54:00;;;;;;;15.00;5.32;;;27.40;99.90;;;;;;5073988;28;20024;-71
2023/10/06 10:56:36;;;;;;;14.05;5.25;;;27.50;99.90;;;;;;5074082;28;20494;-70
2023/10/06 10:59:04;;;;;;;15.00;5.78;;;27.50;99.90;;;;;;5092385;28;20519;-71
2023/10/06 11:01:44;;;;;;;13.15;5.63;;;27.50;99.90;;;;;;5092490;28;20472;-70
2023/10/06 11:04:21;;;;;;;17.73;5.72;;;27.50;99.90;;;;;;5091961;28;20074;-71
2023/10/06 11:06:48;;;;;;;12.70;5.45;;;27.60;99.90;;;;;;5092897;28;20070;-71
2023/10/06 11:09:26;;;;;;;13.15;5.20;;;27.50;99.90;;;;;;5092416;28;20067;-71
2023/10/06 11:12:17;;;;;;;15.90;5.60;;;27.40;99.90;;;;;;5092631;28;20031;-70
2023/10/06 11:14:43;;;;;;;16.60;5.15;;;27.50;99.90;;;;;;5073776;28;20488;-71
2023/10/06 11:17:11;;;;;;;13.55;5.60;;;27.40;99.90;;;;;;5092473;28;20456;-71
2023/10/06 11:19:38;;;;;;;13.73;5.38;;;27.50;99.90;;;;;;5091785;28;20056;-71
2023/10/06 11:22:13;;;;;;;15.48;5.82;;;27.60;99.90;;;;;;5092214;28;20052;-71
2023/10/06 11:24:40;;;;;;;13.30;5.57;;;27.80;99.90;;;;;;5092335;28;20543;-71
2023/10/06 11:27:17;;;;;;;16.23;8.50;;;27.60;99.90;;;;;;5091734;28;20483;-71
2023/10/06 11:29:47;;;;;;;22.10;7.53;;;27.30;99.90;;;;;;5092002;28;20044;-72
2023/10/06 11:32:15;;;;;;;19.42;8.32;;;27.20;99.90;;;;;;5092315;28;20055;-71
2023/10/06 11:34:45;;;;;;;20.42;10.02;;;27.40;99.90;;;;;;5091385;28;20178;-71
2023/10/06 11:37:12;;;;;;;18.55;7.22;;;27.50;99.90;;;;;;5091388;28;20036;-71
2023/10/06 11:39:39;;;;;;;16.10;8.75;;;27.70;99.90;;;;;;5073409;28;20471;-71
2023/10/06 11:42:24;;;;;;;15.52;5.32;;;27.90;99.90;;;;;;5091605;28;20161;-72
2023/10/06 11:44:57;;;;;;;21.60;7.05;;;27.80;99.90;;;;;;5091590;28;20041;-71
2023/10/06 11:47:27;;;;;;;16.15;7.38;;;27.60;99.90;;;;;;5091701;28;20418;-71
2023/10/06 11:49:57;;;;;;;19.63;9.23;;;27.90;99.90;;;;;;5091263;28;20047;-71
2023/10/06 11:52:24;;;;;;;17.35;8.73;;;28.00;99.90;;;;;;5091890;28;20460;-72
2023/10/06 11:54:56;;;;;;;17.10;6.57;;;28.00;99.90;;;;;;5091893;28;20031;-70
2023/10/06 11:57:47;;;;;;;14.23;5.63;;;27.90;99.90;;;;;;5094605;28;20028;-71
2023/10/06 12:00:17;;;;;;;15.52;6.45;;;27.90;99.90;;;;;;5096541;28;20024;-71
2023/10/06 12:02:50;;;;;;;12.88;6.22;;;27.90;99.90;;;;;;5095516;28;20341;-71
2023/10/06 12:05:26;;;;;;;19.35;7.00;;;28.00;99.90;;;;;;5096281;28;20103;-71
2023/10/06 12:07:53;;;;;;;14.00;7.15;;;28.10;99.90;;;;;;5096854;28;20065;-71
2023/10/06 12:10:21;;;;;;;11.98;5.75;;;27.80;99.90;;;;;;5096920;28;20031;-71
2023/10/06 12:12:51;;;;;;;22.08;6.50;;;27.90;99.90;;;;;;5096325;28;20024;-71
2023/10/06 12:15:19;;;;;;;14.88;6.05;;;27.80;99.90;;;;;;5096537;28;20174;-71
2023/10/06 12:17:45;;;;;;;14.60;6.95;;;27.90;99.90;;;;;;5096367;28;20077;-70
2023/10/06 12:20:23;;;;;;;14.40;6.63;;;28.00;99.90;;;;;;5096362;28;20069;-70
2023/10/06 12:22:51;;;;;;;18.83;6.05;;;28.00;99.90;;;;;;5097042;28;20373;-71
2023/10/06 12:25:22;;;;;;;10.32;5.25;;;27.90;99.90;;;;;;5096487;28;20073;-72
2023/10/06 12:27:49;;;;;;;14.60;6.03;;;27.90;99.90;;;;;;5096243;28;20031;-72
2023/10/06 12:30:17;;;;;;;11.63;5.25;;;28.00;99.90;;;;;;5096463;28;20484;-71
2023/10/06 12:32:47;;;;;;;9.77;5.80;;;27.90;99.90;;;;;;5096605;28;20099;-71
2023/10/06 12:35:18;;;;;;;12.25;6.07;;;28.20;99.90;;;;;;5095911;28;20369;-71
2023/10/06 12:37:46;;;;;;;16.38;5.78;;;28.00;99.90;;;;;;5095976;28;20048;-72
2023/10/06 12:40:14;;;;;;;11.23;5.40;;;27.90;99.90;;;;;;5096205;28;20016;-71
2023/10/06 12:42:42;;;;;;;11.85;5.80;;;27.80;99.90;;;;;;5078006;28;20044;-71
2023/10/06 12:45:17;;;;;;;13.10;5.70;;;27.90;99.90;;;;;;5077756;28;20111;-70
2023/10/06 12:47:48;;;;;;;13.82;6.22;;;27.70;99.90;;;;;;5096087;28;20028;-71
2023/10/06 12:50:18;;;;;;;13.70;5.82;;;27.80;99.90;;;;;;5095708;28;20143;-73
2023/10/06 12:52:55;;;;;;;12.68;5.68;;;27.40;99.90;;;;;;5095461;28;20017;-72
2023/10/06 12:55:22;;;;;;;11.35;5.45;;;27.20;99.90;;;;;;5095663;28;20028;-71
2023/10/06 12:57:52;;;;;;;14.57;6.07;;;27.00;99.90;;;;;;5095401;28;20020;-70
2023/10/06 13:00:19;;;;;;;12.23;5.40;;;27.20;99.90;;;;;;5095513;28;20036;-70
2023/10/06 13:02:47;;;;;;;14.18;5.68;;;27.30;99.90;;;;;;5095378;28;20556;-71
2023/10/06 13:05:18;;;;;;;12.57;5.82;;;27.20;99.90;;;;;;5076974;28;20028;-71
2023/10/06 13:07:49;;;;;;;12.75;5.60;;;27.30;99.90;;;;;;5094412;28;20024;-71